Time;durP1;ratioP1;P1;durP2;ratioP2;P2;SDS_P1;SDS_P2;PMS_P1;PMS_P2;Temp;Humidity;BMP_temperature;BMP_pressure;BME280_temperature;BME280_humidity;BME280_pressure;Samples;Min_cycle;Max_cycle;Signal;HPM_P1;HPM_P2
2024/01/08 00:00:25;;;;;;;3.38;1.60;;;;;;;23.65;34.98;99760.41;4968102;28;20027;-45
2024/01/08 00:02:51;;;;;;;3.28;1.63;;;;;;;23.62;34.93;99766.88;4968685;28;20396;-44
2024/01/08 00:05:16;;;;;;;3.40;1.67;;;;;;;23.63;34.96;99773.91;4963721;28;20027;-43
2024/01/08 00:07:41;;;;;;;3.20;1.70;;;;;;;23.62;34.97;99766.88;4964653;28;20022;-43
2024/01/08 00:10:07;;;;;;;3.80;1.80;;;;;;;23.62;34.94;99777.88;4960886;28;20023;-44
2024/01/08 00:12:32;;;;;;;3.22;1.55;;;;;;;23.62;34.92;99775.13;4967149;28;20034;-42
2024/01/08 00:14:58;;;;;;;3.08;1.48;;;;;;;23.58;34.87;99777.31;4974764;28;20049;-44
2024/01/08 00:17:23;;;;;;;3.58;1.70;;;;;;;23.62;34.86;99783.41;4975969;28;20027;-46
2024/01/08 00:19:48;;;;;;;3.58;1.60;;;;;;;23.62;34.88;99782.63;4965828;28;20554;-44
2024/01/08 00:22:14;;;;;;;3.15;1.50;;;;;;;23.62;34.94;99780.63;4966268;28;20027;-45
2024/01/08 00:24:39;;;;;;;3.22;1.60;;;;;;;23.61;34.86;99776.38;4969174;28;20027;-44
2024/01/08 00:27:05;;;;;;;3.38;1.70;;;;;;;23.61;34.88;99776.38;4968066;28;20026;-44
2024/01/08 00:29:30;;;;;;;3.33;1.60;;;;;;;23.62;34.87;99777.88;4965838;28;20571;-44
2024/01/08 00:31:55;;;;;;;3.30;1.52;;;;;;;23.60;34.92;99785.88;4963454;28;20022;-44
2024/01/08 00:34:21;;;;;;;3.30;1.63;;;;;;;23.60;34.92;99779.59;4962177;28;20478;-43
2024/01/08 00:36:46;;;;;;;3.20;1.50;;;;;;;23.60;34.79;99769.34;4967324;28;20026;-44
2024/01/08 00:39:11;;;;;;;3.03;1.40;;;;;;;23.61;35.01;99770.84;4970091;28;20030;-44
2024/01/08 00:41:37;;;;;;;3.90;1.70;;;;;;;23.61;34.90;99764.59;4968806;28;20023;-44
2024/01/08 00:44:02;;;;;;;3.45;1.60;;;;;;;23.58;34.89;99765.56;4968087;28;20022;-45
2024/01/08 00:46:28;;;;;;;3.75;1.70;;;;;;;23.58;34.99;99766.31;4969597;28;20031;-44
2024/01/08 00:48:54;;;;;;;3.40;1.52;;;;;;;23.56;35.00;99766.06;4966721;28;20025;-44
2024/01/08 00:51:19;;;;;;;3.35;1.60;;;;;;;23.59;34.96;99765.06;4963957;28;20028;-44
2024/01/08 00:53:44;;;;;;;3.38;1.60;;;;;;;23.59;34.95;99762.31;4965378;28;20027;-46
2024/01/08 00:56:10;;;;;;;3.45;1.52;;;;;;;23.57;34.96;99764.81;4961517;28;20031;-46
2024/01/08 00:58:36;;;;;;;3.08;1.60;;;;;;;23.58;34.75;99766.31;4963029;28;20403;-45
2024/01/08 01:01:02;;;;;;;3.47;1.58;;;;;;;23.56;34.96;99763.28;4970448;28;20022;-45
2024/01/08 01:03:27;;;;;;;3.28;1.60;;;;;;;23.57;35.00;99766.81;4977866;28;20062;-45
2024/01/08 01:05:53;;;;;;;3.33;1.67;;;;;;;23.59;34.92;99765.06;4973123;28;20026;-44
2024/01/08 01:08:18;;;;;;;3.22;1.65;;;;;;;23.61;34.84;99768.09;4967360;28;20022;-44
2024/01/08 01:10:43;;;;;;;3.33;1.60;;;;;;;23.60;34.99;99760.31;4965387;28;20411;-43
2024/01/08 01:13:09;;;;;;;2.88;1.38;;;;;;;23.59;34.92;99773.34;4968295;28;20034;-45
2024/01/08 01:15:34;;;;;;;3.10;1.50;;;;;;;23.63;34.85;99775.88;4965156;28;20034;-43
2024/01/08 01:18:00;;;;;;;3.08;1.60;;;;;;;23.58;34.92;99771.81;4962692;28;20033;-46
2024/01/08 01:20:25;;;;;;;3.13;1.50;;;;;;;23.57;34.90;99770.31;4963778;28;20712;-47
2024/01/08 01:22:51;;;;;;;3.38;1.63;;;;;;;23.60;34.92;99777.59;4962539;28;20023;-47
2024/01/08 01:25:17;;;;;;;3.20;1.60;;;;;;;23.60;34.84;99783.13;4963549;28;20113;-47
2024/01/08 01:27:42;;;;;;;2.95;1.50;;;;;;;23.59;34.94;99786.34;4969022;28;20023;-46
2024/01/08 01:30:08;;;;;;;3.22;1.60;;;;;;;23.58;34.96;99782.09;4971007;28;20058;-45
2024/01/08 01:32:33;;;;;;;3.40;1.60;;;;;;;23.57;35.03;99786.84;4974277;28;20024;-44
2024/01/08 01:34:59;;;;;;;3.03;1.50;;;;;;;23.56;34.94;99788.09;4969154;28;20031;-43
2024/01/08 01:37:24;;;;;;;2.90;1.50;;;;;;;23.57;35.00;99788.84;4970824;28;20537;-44
2024/01/08 01:39:50;;;;;;;3.45;1.70;;;;;;;23.57;35.07;99788.84;4972083;28;20084;-43
2024/01/08 01:42:15;;;;;;;3.13;1.45;;;;;;;23.56;34.94;99787.34;4966003;28;20039;-43
2024/01/08 01:44:41;;;;;;;3.28;1.70;;;;;;;23.54;35.00;99785.06;4970530;28;20093;-44
2024/01/08 01:47:06;;;;;;;2.92;1.58;;;;;;;23.56;35.06;99790.84;4968043;28;20432;-44
2024/01/08 01:49:31;;;;;;;3.50;1.70;;;;;;;23.56;34.95;99788.09;4975724;28;20033;-43
2024/01/08 01:51:57;;;;;;;3.67;1.67;;;;;;;23.58;34.98;99785.59;4972979;28;20408;-46
2024/01/08 01:54:22;;;;;;;2.92;1.50;;;;;;;23.60;34.87;99782.34;4965814;28;20450;-43
2024/01/08 01:56:54;;;;;;;3.03;1.50;;;;;;;23.59;34.96;99787.09;4974665;28;20042;-44
2024/01/08 01:59:19;;;;;;;2.90;1.48;;;;;;;23.56;34.93;99787.34;4972061;28;20039;-44
2024/01/08 02:01:45;;;;;;;3.17;1.60;;;;;;;23.57;34.96;99786.09;4973285;28;20023;-44
2024/01/08 02:04:10;;;;;;;2.88;1.40;;;;;;;23.55;34.94;99783.81;4969612;28;20034;-44
2024/01/08 02:06:36;;;;;;;2.78;1.48;;;;;;;23.56;34.84;99790.84;4966676;28;20027;-48
2024/01/08 02:09:01;;;;;;;3.70;1.70;;;;;;;23.57;34.95;99789.63;4964142;28;20019;-47
2024/01/08 02:11:26;;;;;;;2.97;1.40;;;;;;;23.58;34.85;99793.84;4963190;28;20113;-44
2024/01/08 02:13:52;;;;;;;3.10;1.42;;;;;;;23.58;34.92;99793.84;4973505;28;20027;-43
2024/01/08 02:16:18;;;;;;;3.10;1.50;;;;;;;23.53;35.00;99791.81;4971997;28;20023;-44
2024/01/08 02:18:43;;;;;;;3.55;1.65;;;;;;;23.56;34.92;99790.84;4969282;28;20473;-45
2024/01/08 02:21:08;;;;;;;3.30;1.50;;;;;;;23.54;35.00;99793.31;4970318;28;20027;-44
2024/01/08 02:23:34;;;;;;;2.78;1.40;;;;;;;23.55;35.02;99792.09;4965172;28;20099;-44
2024/01/08 02:25:59;;;;;;;3.00;1.50;;;;;;;23.56;34.95;99790.84;4971003;28;20037;-44
2024/01/08 02:28:25;;;;;;;2.97;1.42;;;;;;;23.60;34.91;99785.88;4967219;28;20027;-43
2024/01/08 02:30:50;;;;;;;3.00;1.40;;;;;;;23.60;34.89;99779.59;4968400;28;20037;-46
2024/01/08 02:33:15;;;;;;;3.05;1.50;;;;;;;23.57;34.88;99789.63;4963436;28;20027;-46
2024/01/08 02:35:41;;;;;;;3.38;1.60;;;;;;;23.54;34.96;99782.31;4968326;28;20018;-43
2024/01/08 02:38:06;;;;;;;2.50;1.30;;;;;;;23.54;34.99;99779.56;4970192;28;20034;-44
2024/01/08 02:40:32;;;;;;;3.17;1.63;;;;;;;23.54;34.94;99771.28;4980414;28;20031;-43
2024/01/08 02:42:57;;;;;;;3.10;1.40;;;;;;;23.56;34.95;99776.31;4975452;28;20018;-43
2024/01/08 02:45:22;;;;;;;3.30;1.60;;;;;;;23.56;35.00;99776.31;4974234;28;20031;-44
2024/01/08 02:47:48;;;;;;;2.95;1.50;;;;;;;23.55;34.96;99778.31;4971106;28;20084;-44
2024/01/08 02:50:13;;;;;;;2.30;1.40;;;;;;;23.56;35.02;99779.06;4973990;28;20037;-46
2024/01/08 02:52:38;;;;;;;3.28;1.58;;;;;;;23.52;34.98;99779.28;4966901;28;20481;-43
2024/01/08 02:55:04;;;;;;;2.97;1.50;;;;;;;23.53;34.97;99780.03;4967076;28;20035;-44
2024/01/08 02:57:29;;;;;;;2.78;1.45;;;;;;;23.51;35.09;99777.72;4964015;28;20058;-43
2024/01/08 02:59:55;;;;;;;2.58;1.40;;;;;;;23.54;34.97;99787.81;4965504;28;20034;-42
2024/01/08 03:02:21;;;;;;;2.85;1.40;;;;;;;23.52;35.03;99782.03;4975190;28;20470;-42
2024/01/08 03:04:47;;;;;;;2.70;1.40;;;;;;;23.54;34.99;99779.56;4971832;28;20077;-43
2024/01/08 03:07:14;;;;;;;3.13;1.55;;;;;;;23.56;34.95;99790.84;4973085;28;20072;-44
2024/01/08 03:09:39;;;;;;;3.10;1.50;;;;;;;23.55;34.95;99789.34;4972926;28;20027;-44
2024/01/08 03:12:05;;;;;;;3.17;1.48;;;;;;;23.54;34.94;99790.56;4970712;28;20077;-44
2024/01/08 03:14:30;;;;;;;3.33;1.67;;;;;;;23.57;34.93;99786.09;4964469;28;20086;-44
2024/01/08 03:16:55;;;;;;;3.05;1.40;;;;;;;23.55;34.88;99791.31;4967562;28;20027;-45
2024/01/08 03:19:21;;;;;;;2.67;1.42;;;;;;;23.54;34.94;99793.31;4966247;28;20034;-50
2024/01/08 03:21:46;;;;;;;3.38;1.65;;;;;;;23.52;34.96;99793.03;4964795;28;20029;-46
2024/01/08 03:24:11;;;;;;;3.20;1.52;;;;;;;23.52;34.98;99789.53;4973240;28;20023;-47
2024/01/08 03:26:37;;;;;;;2.30;1.30;;;;;;;23.53;35.00;99791.03;4963563;28;20557;-44
2024/01/08 03:29:02;;;;;;;3.13;1.60;;;;;;;23.50;35.03;99795.50;4965929;28;20033;-43
2024/01/08 03:31:27;;;;;;;3.15;1.40;;;;;;;23.52;35.02;99798.56;4969010;28;20548;-43
2024/01/08 03:33:53;;;;;;;2.85;1.50;;;;;;;23.51;35.03;99791.50;4965537;28;20027;-45
2024/01/08 03:36:18;;;;;;;2.92;1.50;;;;;;;23.53;34.97;99791.81;4969339;28;20041;-43
2024/01/08 03:38:43;;;;;;;2.95;1.45;;;;;;;23.53;34.97;99786.28;4965648;28;20031;-44
2024/01/08 03:41:09;;;;;;;3.50;1.60;;;;;;;23.54;34.98;99798.06;4968575;28;20026;-44
2024/01/08 03:43:34;;;;;;;2.83;1.45;;;;;;;23.54;34.90;99795.31;4965309;28;20041;-44
2024/01/08 03:45:59;;;;;;;3.15;1.50;;;;;;;23.57;34.93;99792.38;4970656;28;20027;-44
2024/01/08 03:48:25;;;;;;;3.08;1.50;;;;;;;23.54;34.91;99796.06;4967744;28;20027;-44
2024/01/08 03:50:50;;;;;;;3.35;1.50;;;;;;;23.53;34.92;99800.06;4971245;28;20023;-44
2024/01/08 03:53:16;;;;;;;2.83;1.50;;;;;;;23.52;34.84;99797.78;4973523;28;20018;-44
2024/01/08 03:55:41;;;;;;;2.70;1.40;;;;;;;23.51;35.04;99788.75;4968341;28;20469;-44
2024/01/08 03:58:06;;;;;;;2.72;1.35;;;;;;;23.51;35.02;99791.50;4967159;28;20104;-44
2024/01/08 04:00:32;;;;;;;2.80;1.35;;;;;;;23.49;34.98;99796.72;4967713;28;20035;-43
2024/01/08 04:02:57;;;;;;;2.92;1.50;;;;;;;23.49;34.96;99793.97;4968585;28;20450;-43
2024/01/08 04:05:22;;;;;;;2.78;1.38;;;;;;;23.49;35.02;99793.97;4970333;28;20034;-44
2024/01/08 04:07:48;;;;;;;2.67;1.40;;;;;;;23.50;35.05;99797.47;4964211;28;20023;-43
2024/01/08 04:10:13;;;;;;;3.28;1.50;;;;;;;23.46;35.09;99805.94;4961814;28;20381;-44
2024/01/08 04:12:39;;;;;;;2.72;1.50;;;;;;;23.47;35.03;99807.47;4967392;28;20073;-44
2024/01/08 04:15:05;;;;;;;3.00;1.50;;;;;;;23.47;35.11;99804.72;4972922;28;20482;-44
2024/01/08 04:17:30;;;;;;;2.80;1.40;;;;;;;23.48;35.05;99797.97;4972219;28;20089;-43
2024/01/08 04:19:55;;;;;;;2.95;1.40;;;;;;;23.49;35.04;99802.22;4968521;28;20097;-43
2024/01/08 04:22:21;;;;;;;3.28;1.40;;;;;;;23.47;35.13;99804.72;4968614;28;20046;-45
2024/01/08 04:24:46;;;;;;;3.33;1.50;;;;;;;23.50;34.99;99811.25;4968626;28;20551;-44
2024/01/08 04:27:11;;;;;;;2.88;1.40;;;;;;;23.49;35.02;99806.97;4967116;28;20026;-43
2024/01/08 04:29:37;;;;;;;2.95;1.40;;;;;;;23.47;34.99;99815.72;4965073;28;20118;-45
2024/01/08 04:32:03;;;;;;;2.65;1.30;;;;;;;23.46;35.13;99814.22;4964916;28;20039;-47
2024/01/08 04:34:28;;;;;;;3.13;1.60;;;;;;;23.45;35.01;99818.19;4960555;28;20088;-44
2024/01/08 04:36:53;;;;;;;3.00;1.50;;;;;;;23.46;34.97;99814.22;4967847;28;20031;-44
2024/01/08 04:39:19;;;;;;;2.58;1.30;;;;;;;23.49;34.96;99821.53;4969712;28;20027;-44
2024/01/08 04:41:44;;;;;;;2.70;1.40;;;;;;;23.47;35.04;99814.97;4964421;28;20031;-44
2024/01/08 04:44:10;;;;;;;3.20;1.50;;;;;;;23.47;35.07;99814.97;4968375;28;20667;-43
2024/01/08 04:46:35;;;;;;;2.70;1.40;;;;;;;23.45;35.03;99817.44;4968325;28;20023;-44
2024/01/08 04:49:02;;;;;;;2.85;1.33;;;;;;;23.44;35.11;99811.16;4968095;28;20014;-45
2024/01/08 04:51:28;;;;;;;2.60;1.38;;;;;;;23.46;34.96;99819.72;4962471;28;20034;-41
2024/01/08 04:53:53;;;;;;;2.90;1.40;;;;;;;23.45;35.14;99817.44;4965237;28;20027;-44
2024/01/08 04:56:23;;;;;;;2.67;1.40;;;;;;;23.45;35.04;99812.69;4961938;28;20497;-45
2024/01/08 04:58:48;;;;;;;3.00;1.40;;;;;;;23.49;34.97;99826.28;4962057;28;20026;-43
2024/01/08 05:01:14;;;;;;;3.30;1.60;;;;;;;23.47;35.07;99820.47;4986543;28;20110;-44
2024/01/08 05:03:39;;;;;;;3.00;1.40;;;;;;;23.45;35.01;99818.19;4971797;28;20448;-44
2024/01/08 05:06:05;;;;;;;3.17;1.50;;;;;;;23.46;35.07;99822.47;4967523;28;20026;-44
2024/01/08 05:08:30;;;;;;;2.53;1.40;;;;;;;23.46;34.93;99825.22;4965276;28;20433;-46
2024/01/08 05:10:56;;;;;;;3.25;1.40;;;;;;;23.45;34.98;99823.72;4963283;28;20106;-47
2024/01/08 05:13:21;;;;;;;2.85;1.60;;;;;;;23.43;35.05;99822.66;4964135;28;20507;-46
2024/01/08 05:15:46;;;;;;;3.03;1.40;;;;;;;23.44;35.00;99827.69;4964341;28;20023;-47
2024/01/08 05:18:12;;;;;;;2.55;1.30;;;;;;;23.39;35.17;99825.59;4962721;28;20041;-44
2024/01/08 05:20:37;;;;;;;2.67;1.40;;;;;;;23.40;35.16;99821.63;4963641;28;20038;-44
2024/01/08 05:23:03;;;;;;;2.63;1.42;;;;;;;23.40;35.07;99821.63;4962908;28;20021;-47
2024/01/08 05:25:29;;;;;;;2.58;1.25;;;;;;;23.40;35.07;99827.13;4969580;28;20031;-45
2024/01/08 05:27:54;;;;;;;2.78;1.50;;;;;;;23.43;35.00;99831.69;4969028;28;20461;-47
2024/01/08 05:30:20;;;;;;;2.80;1.40;;;;;;;23.42;35.15;99832.91;4967561;28;20049;-43
2024/01/08 05:32:45;;;;;;;2.88;1.35;;;;;;;23.42;35.11;99838.44;4964938;28;20022;-48
2024/01/08 05:35:10;;;;;;;3.40;1.50;;;;;;;23.45;35.14;99839.47;4966709;28;20025;-46
2024/01/08 05:37:36;;;;;;;2.83;1.40;;;;;;;23.45;35.05;99837.47;4962901;28;20510;-46
2024/01/08 05:40:03;;;;;;;3.00;1.50;;;;;;;23.44;35.13;99846.97;4964926;28;20030;-44
2024/01/08 05:42:28;;;;;;;3.10;1.55;;;;;;;23.44;34.96;99846.22;4966077;28;20039;-45
2024/01/08 05:44:54;;;;;;;2.75;1.30;;;;;;;23.44;35.13;99835.97;4967201;28;20031;-44
2024/01/08 05:47:19;;;;;;;3.13;1.50;;;;;;;23.44;35.01;99846.97;4966806;28;20049;-46
2024/01/08 05:49:44;;;;;;;2.83;1.40;;;;;;;23.43;35.00;99850.22;4968122;28;20019;-44
2024/01/08 05:52:11;;;;;;;2.85;1.48;;;;;;;23.43;35.13;99852.97;4971518;28;20493;-45
2024/01/08 05:54:36;;;;;;;2.95;1.40;;;;;;;23.40;35.01;99856.66;4966822;28;20061;-44
2024/01/08 05:57:02;;;;;;;2.67;1.40;;;;;;;23.41;35.03;99852.69;4966908;28;20482;-45
2024/01/08 05:59:27;;;;;;;2.67;1.40;;;;;;;23.37;35.15;99855.66;4963960;28;20027;-43
2024/01/08 06:01:52;;;;;;;2.58;1.35;;;;;;;23.40;35.07;99851.91;4964919;28;20030;-45
2024/01/08 06:04:18;;;;;;;2.63;1.40;;;;;;;23.44;35.06;99860.00;4962851;28;20392;-43
2024/01/08 06:06:43;;;;;;;2.70;1.38;;;;;;;23.44;34.99;99862.75;4960925;28;20045;-43
2024/01/08 06:09:09;;;;;;;3.15;1.50;;;;;;;23.42;35.12;99852.22;4961644;28;20034;-44
2024/01/08 06:11:34;;;;;;;2.60;1.40;;;;;;;23.42;34.98;99852.22;4966150;28;20482;-44
2024/01/08 06:13:59;;;;;;;2.92;1.52;;;;;;;23.41;35.01;99856.19;4973645;28;20082;-44
2024/01/08 06:16:26;;;;;;;2.63;1.50;;;;;;;23.43;35.08;99853.72;4968541;28;20682;-44
2024/01/08 06:18:51;;;;;;;3.00;1.48;;;;;;;23.40;35.01;99857.44;4968723;28;20034;-46
2024/01/08 06:21:16;;;;;;;2.00;1.25;;;;;;;23.38;35.11;99846.16;4967033;28;20043;-44
2024/01/08 06:23:42;;;;;;;2.30;1.30;;;;;;;23.39;35.09;99855.91;4967475;28;20078;-48
2024/01/08 06:26:07;;;;;;;2.85;1.40;;;;;;;23.38;35.11;99850.91;4968695;28;20019;-47
2024/01/08 06:28:33;;;;;;;2.72;1.52;;;;;;;23.38;35.10;99848.91;4965111;28;20100;-44
2024/01/08 06:31:01;;;;;;;2.47;1.30;;;;;;;23.38;34.96;99850.91;4968755;28;20429;-43
2024/01/08 06:33:26;;;;;;;2.83;1.40;;;;;;;23.36;35.12;99845.88;4963547;28;20390;-45
2024/01/08 06:35:52;;;;;;;2.33;1.30;;;;;;;23.38;35.06;99843.41;4972283;28;20031;-43
2024/01/08 06:38:17;;;;;;;2.55;1.40;;;;;;;23.36;34.97;99848.63;4972009;28;20038;-44
2024/01/08 06:40:42;;;;;;;3.30;1.50;;;;;;;23.36;35.10;99848.63;4973977;28;20525;-44
2024/01/08 06:43:08;;;;;;;2.97;1.50;;;;;;;23.38;35.04;99850.91;4975656;28;20033;-48
2024/01/08 06:45:33;;;;;;;2.78;1.35;;;;;;;23.39;34.99;99858.66;4971291;28;20520;-44
2024/01/08 06:47:58;;;;;;;2.97;1.50;;;;;;;23.37;35.11;99855.66;4971799;28;20022;-43
2024/01/08 06:50:24;;;;;;;2.38;1.27;;;;;;;23.35;35.14;99855.38;4966618;28;20030;-42
2024/01/08 06:52:49;;;;;;;2.70;1.40;;;;;;;23.37;35.15;99861.16;4970330;28;20418;-46
2024/01/08 06:55:15;;;;;;;2.72;1.42;;;;;;;23.40;35.04;99856.66;4966566;28;20089;-44
2024/01/08 06:57:40;;;;;;;3.00;1.52;;;;;;;23.39;35.08;99853.16;4962659;28;20031;-44
2024/01/08 07:00:08;;;;;;;2.90;1.40;;;;;;;23.38;35.00;99855.16;4975501;28;20097;-48
2024/01/08 07:02:33;;;;;;;2.50;1.30;;;;;;;23.38;35.02;99862.69;4974636;28;20025;-46
2024/01/08 07:04:58;;;;;;;3.15;1.40;;;;;;;23.37;35.10;99861.16;4973726;28;20027;-46
2024/01/08 07:07:24;;;;;;;2.97;1.40;;;;;;;23.38;34.84;99866.16;4972344;28;20089;-45
2024/01/08 07:09:49;;;;;;;2.90;1.50;;;;;;;23.39;34.97;99861.41;4966830;28;20470;-44
2024/01/08 07:12:14;;;;;;;3.00;1.50;;;;;;;23.38;35.03;99866.16;4969559;28;20039;-45
2024/01/08 07:14:45;;;;;;;2.95;1.40;;;;;;;23.38;35.13;99862.69;4965033;28;20105;-44
2024/01/08 07:17:10;;;;;;;3.10;1.40;;;;;;;23.33;35.12;99866.88;4967654;28;20135;-44
2024/01/08 07:19:36;;;;;;;2.13;1.30;;;;;;;23.34;35.18;99873.13;4964154;28;20035;-46
2024/01/08 07:22:01;;;;;;;2.97;1.40;;;;;;;23.35;35.12;99875.41;4967677;28;20044;-44
2024/01/08 07:24:27;;;;;;;2.13;1.20;;;;;;;23.37;35.11;99872.19;4979881;28;20027;-43
2024/01/08 07:26:53;;;;;;;3.20;1.63;;;;;;;23.38;35.05;99870.19;4972502;28;20043;-44
2024/01/08 07:29:19;;;;;;;2.65;1.40;;;;;;;23.36;35.04;99870.66;4970978;28;20089;-44
2024/01/08 07:31:44;;;;;;;2.83;1.40;;;;;;;23.36;35.16;99865.16;4967532;28;20022;-43
2024/01/08 07:34:09;;;;;;;3.00;1.40;;;;;;;23.34;35.09;99868.38;4969428;28;20033;-45
2024/01/08 07:36:35;;;;;;;2.90;1.50;;;;;;;23.35;35.12;99877.41;4969156;28;20468;-48
2024/01/08 07:39:00;;;;;;;2.47;1.30;;;;;;;23.35;35.11;99883.66;4965787;28;20022;-45
2024/01/08 07:41:27;;;;;;;2.70;1.40;;;;;;;23.35;35.09;99882.91;4968134;28;20027;-46
2024/01/08 07:43:52;;;;;;;3.10;1.50;;;;;;;23.34;35.04;99881.41;4963840;28;20121;-43
2024/01/08 07:46:18;;;;;;;2.50;1.38;;;;;;;23.34;35.11;99884.16;4976197;28;20116;-44
2024/01/08 07:48:43;;;;;;;2.30;1.30;;;;;;;23.29;35.21;99884.81;4973221;28;20023;-45
2024/01/08 07:51:10;;;;;;;2.65;1.35;;;;;;;23.31;35.11;99885.09;4969665;28;20033;-43
2024/01/08 07:53:36;;;;;;;3.08;1.50;;;;;;;23.32;35.17;99892.88;4969412;28;20031;-45
2024/01/08 07:56:02;;;;;;;2.38;1.20;;;;;;;23.33;35.19;99891.66;4970948;28;20023;-46
2024/01/08 07:58:27;;;;;;;2.92;1.42;;;;;;;23.32;35.10;99897.63;4968764;28;20034;-44
2024/01/08 08:00:53;;;;;;;2.88;1.42;;;;;;;23.33;35.13;99896.41;4967775;28;20106;-45
2024/01/08 08:03:18;;;;;;;2.80;1.38;;;;;;;23.34;35.04;99890.41;4965736;28;20019;-43
2024/01/08 08:05:44;;;;;;;2.67;1.40;;;;;;;23.36;34.98;99903.72;4962854;28;20035;-44
2024/01/08 08:08:09;;;;;;;2.13;1.25;;;;;;;23.34;35.03;99906.19;4963999;28;20040;-44
2024/01/08 08:10:35;;;;;;;2.13;1.30;;;;;;;23.32;35.13;99911.41;4960795;28;20027;-44
2024/01/08 08:13:01;;;;;;;2.65;1.40;;;;;;;23.34;35.09;99903.44;4977172;28;20058;-48
2024/01/08 08:15:26;;;;;;;2.75;1.30;;;;;;;23.31;35.14;99905.13;4975261;28;20033;-44
2024/01/08 08:17:51;;;;;;;2.47;1.30;;;;;;;23.30;35.17;99902.84;4966717;28;20027;-46
2024/01/08 08:20:17;;;;;;;2.72;1.35;;;;;;;23.31;35.10;99901.63;4966662;28;20030;-45
2024/01/08 08:22:42;;;;;;;3.10;1.40;;;;;;;23.29;35.04;99904.09;4963170;28;20038;-42
2024/01/08 08:25:08;;;;;;;2.65;1.30;;;;;;;23.29;35.09;99909.59;4965303;28;20027;-44
2024/01/08 08:27:35;;;;;;;2.83;1.40;;;;;;;23.30;35.11;99908.38;4964866;28;20520;-45
2024/01/08 08:30:00;;;;;;;2.88;1.40;;;;;;;23.30;35.16;99911.13;4963634;28;20090;-44
2024/01/08 08:32:26;;;;;;;2.33;1.30;;;;;;;23.32;35.14;99908.66;4962700;28;20034;-44
2024/01/08 08:34:51;;;;;;;2.45;1.30;;;;;;;23.31;35.03;99915.41;4963928;28;20444;-44
2024/01/08 08:37:16;;;;;;;2.60;1.30;;;;;;;23.31;35.05;99913.41;4965236;28;20031;-44
2024/01/08 08:39:42;;;;;;;3.03;1.50;;;;;;;23.27;35.17;99912.81;4968177;28;20057;-44
2024/01/08 08:42:07;;;;;;;2.33;1.30;;;;;;;23.30;35.14;99922.91;4967717;28;20031;-44
2024/01/08 08:44:33;;;;;;;2.70;1.40;;;;;;;23.31;35.14;99924.41;4969636;28;20544;-44
2024/01/08 08:46:58;;;;;;;2.53;1.40;;;;;;;23.31;35.16;99923.66;4967295;28;20510;-44
2024/01/08 08:49:24;;;;;;;2.72;1.30;;;;;;;23.29;35.20;99924.13;4968297;28;20034;-46
2024/01/08 08:51:49;;;;;;;3.05;1.50;;;;;;;23.27;35.25;99929.34;4968386;28;20027;-44
2024/01/08 08:54:14;;;;;;;3.10;1.40;;;;;;;23.28;35.21;99943.88;4965142;28;20026;-43
2024/01/08 08:56:40;;;;;;;2.78;1.40;;;;;;;23.27;35.14;99931.34;4967523;28;20080;-44
2024/01/08 08:59:05;;;;;;;2.35;1.30;;;;;;;23.29;35.18;99934.38;4973448;28;20039;-43
2024/01/08 09:01:30;;;;;;;2.03;1.20;;;;;;;23.27;35.14;99943.13;4969931;28;20018;-44
2024/01/08 09:03:56;;;;;;;3.08;1.40;;;;;;;23.27;35.21;99947.88;4967905;28;20034;-44
2024/01/08 09:06:23;;;;;;;3.03;1.50;;;;;;;23.26;35.19;99938.84;4968030;28;20389;-46
2024/01/08 09:08:50;;;;;;;;;;;;;;;23.25;35.16;99944.81;4964808;28;20023;-44
2024/01/08 09:11:15;;;;;;;2.80;1.30;;;;;;;23.26;35.20;99944.34;4967647;28;19960;-47
2024/01/08 09:13:41;;;;;;;2.25;1.30;;;;;;;23.27;35.22;99947.88;4970366;28;20398;-44
2024/01/08 09:16:09;;;;;;;2.75;1.35;;;;;;;23.27;35.15;99950.63;4965866;28;20109;-43
2024/01/08 09:18:35;;;;;;;2.38;1.30;;;;;;;23.27;35.15;99958.88;4961246;28;20034;-43
2024/01/08 09:21:00;;;;;;;2.30;1.30;;;;;;;23.28;35.19;99950.16;4965134;28;20041;-44
2024/01/08 09:23:26;;;;;;;2.28;1.30;;;;;;;23.27;35.09;99956.88;4973374;28;20105;-44
2024/01/08 09:25:51;;;;;;;2.42;1.30;;;;;;;23.26;35.22;99960.13;4971196;28;20033;-47
2024/01/08 09:28:16;;;;;;;2.28;1.27;;;;;;;23.26;35.15;99971.13;4972993;28;20034;-45
2024/01/08 09:30:42;;;;;;;2.60;1.40;;;;;;;23.27;35.40;99965.16;4971396;28;20037;-44
2024/01/08 09:33:07;;;;;;;2.63;1.42;;;;;;;23.26;35.18;99965.63;4966642;28;20030;-43
2024/01/08 09:35:32;;;;;;;2.65;1.33;;;;;;;23.27;35.09;99965.16;4964776;28;20031;-43
2024/01/08 09:37:58;;;;;;;2.67;1.25;;;;;;;23.25;35.17;99972.38;4965024;28;20548;-44
2024/01/08 09:40:23;;;;;;;2.35;1.20;;;;;;;23.25;35.14;99964.09;4964118;28;20027;-46
2024/01/08 09:42:51;;;;;;;2.28;1.30;;;;;;;23.26;34.99;99963.63;4959444;28;20152;-44
2024/01/08 09:45:16;;;;;;;2.45;1.30;;;;;;;23.27;35.11;99967.91;4952111;28;20117;-47
2024/01/08 09:47:42;;;;;;;2.42;1.30;;;;;;;23.29;35.01;99976.47;4952136;28;20039;-49
2024/01/08 09:50:11;;;;;;;2.47;1.30;;;;;;;23.29;35.12;99975.69;4963207;28;20023;-43
2024/01/08 09:52:38;;;;;;;2.97;1.40;;;;;;;23.28;35.19;99965.91;4964939;28;20486;-43
2024/01/08 09:55:04;;;;;;;2.72;1.42;;;;;;;23.28;35.14;99971.41;4983025;28;20027;-44
2024/01/08 09:57:30;;;;;;;2.58;1.30;;;;;;;23.26;35.12;99968.38;4965705;28;20564;-46
2024/01/08 09:59:56;;;;;;;2.97;1.38;;;;;;;23.29;35.09;99964.69;4963999;28;20023;-46
2024/01/08 10:02:21;;;;;;;2.15;1.30;;;;;;;23.27;35.11;99967.91;4969134;28;20041;-46
2024/01/08 10:04:46;;;;;;;2.95;1.30;;;;;;;23.25;35.15;99980.63;4964568;28;20504;-46
2024/01/08 10:07:13;;;;;;;3.17;1.50;;;;;;;23.24;35.19;99976.34;4965544;28;20014;-47
2024/01/08 10:09:38;;;;;;;2.42;1.30;;;;;;;23.24;35.12;99968.84;4969747;28;20050;-46
2024/01/08 10:12:08;;;;;;;2.90;1.42;;;;;;;23.21;35.10;99975.28;4980731;28;20086;-44
2024/01/08 10:14:34;;;;;;;2.53;1.30;;;;;;;23.23;35.17;99963.81;4960159;28;20027;-45
2024/01/08 10:16:59;;;;;;;2.13;1.23;;;;;;;23.22;35.20;99967.81;4973063;28;20019;-43
2024/01/08 10:19:25;;;;;;;2.70;1.45;;;;;;;23.24;35.17;99970.84;4971080;28;20034;-44
2024/01/08 10:22:09;;;;;;;2.75;1.30;;;;;;;23.22;35.20;99965.03;4967578;28;20042;-45
2024/01/08 10:24:35;;;;;;;2.33;1.38;;;;;;;23.22;35.21;99973.31;4969104;28;20030;-44
2024/01/08 10:27:01;;;;;;;2.83;1.40;;;;;;;23.22;35.22;99970.56;4966202;28;20035;-46
2024/01/08 10:29:27;;;;;;;2.67;1.40;;;;;;;23.20;35.24;99964.75;4966572;28;20027;-43
2024/01/08 10:31:52;;;;;;;2.00;1.20;;;;;;;23.21;35.33;99955.25;4966511;28;20037;-43
2024/01/08 10:34:18;;;;;;;2.67;1.40;;;;;;;23.24;35.21;99957.06;4973460;28;20034;-44
2024/01/08 10:36:43;;;;;;;2.20;1.20;;;;;;;23.21;35.20;99956.03;4955372;28;20524;-44
2024/01/08 10:39:09;;;;;;;2.55;1.30;;;;;;;23.20;35.31;99965.50;4975601;28;20019;-46
2024/01/08 10:41:35;;;;;;;2.80;1.40;;;;;;;23.22;35.24;99956.78;4971651;28;20540;-47
2024/01/08 10:44:00;;;;;;;2.30;1.30;;;;;;;23.20;35.22;99967.50;4972670;28;20035;-46
2024/01/08 10:46:27;;;;;;;2.63;1.40;;;;;;;23.19;35.26;99965.97;4974266;28;20022;-46
2024/01/08 10:48:52;;;;;;;2.97;1.50;;;;;;;23.22;35.21;99965.81;4964605;28;20077;-45
2024/01/08 10:51:18;;;;;;;3.00;1.40;;;;;;;23.20;35.27;99962.00;4966176;28;20038;-43
2024/01/08 10:53:47;;;;;;;2.22;1.30;;;;;;;23.18;35.16;99959.72;4964950;28;20031;-44
2024/01/08 10:56:18;;;;;;;3.00;1.40;;;;;;;23.20;35.20;99968.28;4965003;28;20054;-43
2024/01/08 10:59:08;;;;;;;2.92;1.40;;;;;;;23.19;35.28;99954.97;4972866;28;20370;-45
2024/01/08 11:01:33;;;;;;;2.33;1.30;;;;;;;23.17;35.24;99962.97;4969444;28;20027;-45
2024/01/08 11:03:58;;;;;;;3.03;1.50;;;;;;;23.19;35.21;99960.47;4969605;28;20113;-43
2024/01/08 11:06:24;;;;;;;2.70;1.30;;;;;;;23.18;35.26;99948.69;4967588;28;20071;-45
2024/01/08 11:08:49;;;;;;;3.25;1.42;;;;;;;23.21;35.20;99947.00;4951371;28;20096;-46
2024/01/08 11:11:15;;;;;;;2.63;1.30;;;;;;;23.21;35.15;99945.00;4965259;28;20491;-44
2024/01/08 11:13:41;;;;;;;2.80;1.40;;;;;;;23.19;35.29;99938.44;4965197;28;20038;-47
2024/01/08 11:16:07;;;;;;;2.72;1.33;;;;;;;23.20;35.18;99937.22;4963723;28;20037;-48
2024/01/08 11:18:32;;;;;;;2.50;1.30;;;;;;;23.20;35.21;99937.22;4963155;28;20034;-45
2024/01/08 11:20:59;;;;;;;2.50;1.33;;;;;;;23.20;35.25;99939.97;4968252;28;20037;-47
2024/01/08 11:23:34;;;;;;;2.10;1.30;;;;;;;23.18;35.41;99931.44;4976004;28;20026;-48
2024/01/08 11:26:08;;;;;;;2.72;1.40;;;;;;;23.18;35.24;99923.91;4973676;28;20489;-45